Flight Track Log - Related Links

Times and Time Zones

All times are in EST time to prevent confusion due to time zone crossing. See the GTX653 flight status page for this flight to view local times or setup timezone preferences in your user account.

Time Position Orientation Groundspeed Altitude Reporting Facility
EST Latitude Longitude Course Direction KTS MPH feet Rate Location/Type
Fri 11:51:19 PM 32.9500 -96.7667 157° South 148 170 2,300  Level Dallas / Fort Worth TRACON
Fri 11:52:31 PM 32.9167 -96.7500 157° South 121 139 3,200 667 Climbing Dallas / Fort Worth TRACON
Fri 11:53:25 PM 32.8833 -96.7500 180° South 131 151 3,700 619 Climbing Dallas / Fort Worth TRACON
Fri 11:54:37 PM 32.8500 -96.7667 203° Southwest 134 154 4,500 600 Climbing Dallas / Fort Worth TRACON
Fri 11:55:25 PM 32.8167 -96.7833 203° Southwest 136 157 4,900 579 Climbing Dallas / Fort Worth TRACON
Fri 11:56:31 PM 32.7667 -96.8000 196° South 135 155 5,600 591 Climbing Dallas / Fort Worth TRACON
Fri 11:57:37 PM 32.7333 -96.8000 180° South 138 159 6,200 526 Climbing Dallas / Fort Worth TRACON
Fri 11:58:25 PM 32.7000 -96.8167 203° Southwest 144 166 6,600 222 Climbing Dallas / Fort Worth TRACON
Fri 11:59:25 PM 32.6667 -96.8167 180° South 158 182 6,600  Level Dallas / Fort Worth TRACON
Sat 12:00:37 AM 32.6167 -96.8333 196° South 163 188 6,600  Level Dallas / Fort Worth TRACON
Sat 12:01:16 AM 32.5819 -96.8531 206° Southwest 162 186 6,600  Level Fort Worth Center
Sat 12:02:17 AM 32.5350 -96.8692 196° South 163 188 6,600 -49 Level Fort Worth Center
Sat 12:03:18 AM 32.4881 -96.8811 192° South 168 193 6,500  Descending Fort Worth Center
Sat 12:04:19 AM 32.4433 -96.8953 195° South 168 193 6,600 49 Climbing Fort Worth Center
Sat 12:05:20 AM 32.3994 -96.9083 194° South 166 191 6,600  Level Fort Worth Center
Sat 12:06:20 AM 32.3564 -96.9275 201° Southwest 165 190 6,600  Level Fort Worth Center
Sat 12:07:21 AM 32.3094 -96.9442 197° South 165 190 6,600 -49 Level Fort Worth Center
Sat 12:08:22 AM 32.2681 -96.9581 196° South 166 191 6,500 -49 Descending Fort Worth Center
Sat 12:09:23 AM 32.2203 -96.9750 197° South 166 191 6,500  Level Fort Worth Center
Sat 12:10:24 AM 32.1758 -96.9911 197° South 166 191 6,500 50 Level Fort Worth Center
Sat 12:11:24 AM 32.1322 -97.0064 197° South 166 191 6,600 -50 Climbing Fort Worth Center
Sat 12:12:25 AM 32.0875 -97.0150 189° South 165 190 6,400  Descending Fort Worth Center
Sat 12:13:26 AM 32.0444 -97.0339 200° South 165 190 6,600 99 Climbing Fort Worth Center
Sat 12:14:26 AM 32.0006 -97.0442 191° South 165 190 6,600  Level Fort Worth Center
Sat 12:15:27 AM 31.9597 -97.0542 192° South 165 190 6,600  Level Fort Worth Center
Sat 12:16:28 AM 31.9144 -97.0647 191° South 165 190 6,600 -49 Level Fort Worth Center
Sat 12:17:29 AM 31.8675 -97.0789 194° South 165 190 6,500  Descending Fort Worth Center
Sat 12:18:29 AM 31.8253 -97.0908 194° South 164 189 6,600  Climbing Fort Worth Center
Sat 12:19:30 AM 31.7814 -97.1058 196° South 164 189 6,500  Descending Fort Worth Center
Sat 12:20:31 AM 31.7375 -97.1228 198° South 164 189 6,600 50 Climbing Fort Worth Center
Sat 12:21:31 AM 31.6925 -97.1347 193° South 164 189 6,600  Level Fort Worth Center
Sat 12:22:32 AM 31.6472 -97.1469 193° South 164 189 6,600 -50 Level Fort Worth Center
Sat 12:23:32 AM 31.6000 -97.1586 192° South 167 192 6,500 -50 Descending Fort Worth Center
Sat 12:24:33 AM 31.5558 -97.1758 198° South 167 192 6,500 60 Level Fort Worth Center
Sat 12:25:12 AM 31.5217 -97.1897 199° South 167 192 6,600 133 Climbing Fort Worth Center
Sat 12:25:18 AM 31.5175 -97.1906 190° South 167 192 6,600  Level Fort Worth Center
Sat 12:25:33 AM 31.5094 -97.1919 188° South 167 192 6,600  Level Fort Worth Center
Sat 12:26:34 AM 31.4650 -97.2078 197° South 167 192 6,600 -49 Level Fort Worth Center
Sat 12:27:35 AM 31.4197 -97.2233 196° South 167 192 6,500 -50 Descending Fort Worth Center
Sat 12:28:35 AM 31.3725 -97.2378 195° South 169 194 6,500  Level Fort Worth Center
Sat 12:29:36 AM 31.3267 -97.2550 198° South 169 194 6,500 50 Level Fort Worth Center
Sat 12:30:36 AM 31.2800 -97.2703 196° South 169 194 6,600 94 Climbing Fort Worth Center
Sat 12:30:40 AM 31.2728 -97.2739 203° Southwest 171 197 6,600 -98 Level Fort Worth Center
Sat 12:31:37 AM 31.2339 -97.2861 195° South 170 196 6,500 -100 Descending Fort Worth Center
Sat 12:31:40 AM 31.2281 -97.2889 202° Southwest 170 196 6,500 194 Level Fort Worth Center
Sat 12:32:39 AM 31.1886 -97.3039 198° South 169 194 6,700 101 Climbing Houston Center
Sat 12:33:39 AM 31.1425 -97.3183 195° South 169 194 6,700  Level Houston Center
Sat 12:34:40 AM 31.0967 -97.3339 196° South 169 194 6,700 -50 Level Houston Center
Sat 12:35:40 AM 31.0519 -97.3506 198° South 169 194 6,600  Descending Houston Center
Sat 12:36:40 AM 30.9992 -97.3683 196° South 169 194 6,700  Climbing Houston Center
Sat 12:37:41 AM 30.9536 -97.3836 196° South 169 194 6,600 -50 Descending Houston Center
Sat 12:38:41 AM 30.9083 -97.3981 195° South 169 194 6,600 -198 Level Houston Center
Sat 12:39:42 AM 30.8603 -97.4139 196° South 174 200 6,200 -496 Descending Houston Center
Sat 12:40:42 AM 30.8097 -97.4342 199° South 186 214 5,600 -650 Descending Houston Center
Sat 12:41:42 AM 30.7572 -97.4494 194° South 189 217 4,900 -595 Descending Houston Center
Sat 12:42:43 AM 30.7064 -97.4644 194° South 190 219 4,400 -545 Descending Houston Center
Sat 12:43:43 AM 30.6656 -97.4769 195° South 185 213 3,800 -650 Descending Houston Center
Sat 12:44:43 AM 30.6086 -97.4953 195° South 184 212 3,100 -496 Descending Houston Center
Sat 12:45:44 AM 30.5636 -97.5128 199° South 176 203 2,800 -347 Descending Houston Center
Sat 12:46:44 AM 30.5225 -97.5303 200° South 170 196 2,400 -400 Descending Houston Center

Login

Don't have an account? Register now (free) for customized features, flight alerts, and more!